Terminal Aerodrome Forecast
Issued by NWS Bismarck, ND

Home | Current Version | Previous Version | Graphics & Text | Print | Product List | Glossary On
Versions: 1 2 3 4 5 6 7 8 9 10 11 12 13 14 15 16 17 18 19 20
000
FTUS43 KISN 201200 AAA
TAFISN
TAF AMD
KISN 201243Z 2013/2112 14005KT P6SM VCSH BKN120
      TEMPO 2013/2015 6SM -SHRA BKN090
     FM201800 15009KT P6SM -SHRA OVC080
      TEMPO 2020/2023 3SM TSRA BKN030CB OVC050
     FM202300 33008KT P6SM SHRA OVC060
     FM210900 32007KT P6SM OVC050=

USA.gov is the U.S. government's official web portal to all federal, state and local government web resources and services.